Time;durP1;ratioP1;P1;durP2;ratioP2;P2;SDS_P1;SDS_P2;PMS_P1;PMS_P2;Temp;Humidity;BMP_temperature;BMP_pressure;BME280_temperature;BME280_humidity;BME280_pressure;Samples;Min_cycle;Max_cycle;Signal;HPM_P1;HPM_P2
2021/10/17 00:00:22;;;;;;;12.20;10.90;;;6.10;99.90;;;;;;5042910;28;20463;-74
2021/10/17 00:02:49;;;;;;;18.57;13.00;;;6.10;99.90;;;;;;5032950;28;20407;-74
2021/10/17 00:05:18;;;;;;;18.43;12.90;;;6.10;99.90;;;;;;5052629;28;20395;-74
2021/10/17 00:07:44;;;;;;;18.60;12.73;;;6.10;99.90;;;;;;5052565;28;20405;-74
2021/10/17 00:10:14;;;;;;;21.43;12.73;;;6.10;99.90;;;;;;5052468;28;20399;-74
2021/10/17 00:12:41;;;;;;;17.70;12.10;;;6.10;99.90;;;;;;5052568;28;20952;-74
2021/10/17 00:15:09;;;;;;;12.13;10.10;;;6.10;99.90;;;;;;5034105;28;20485;-74
2021/10/17 00:17:35;;;;;;;16.67;11.80;;;6.10;99.90;;;;;;5032618;28;20491;-74
2021/10/17 00:20:01;;;;;;;17.37;10.30;;;6.10;99.90;;;;;;5032455;28;20545;-74
2021/10/17 00:22:26;;;;;;;19.80;13.13;;;6.10;99.90;;;;;;5032329;28;20153;-74
2021/10/17 00:24:52;;;;;;;20.33;14.73;;;6.00;99.90;;;;;;5032210;28;20215;-74
2021/10/17 00:27:17;;;;;;;23.50;16.20;;;6.00;99.90;;;;;;5045420;28;20175;-74
2021/10/17 00:29:43;;;;;;;25.03;13.20;;;6.00;99.90;;;;;;5047311;28;20251;-74
2021/10/17 00:32:10;;;;;;;20.83;12.93;;;6.00;99.90;;;;;;5032777;28;20192;-74
2021/10/17 00:34:36;;;;;;;15.37;12.80;;;6.00;99.90;;;;;;5033997;28;20266;-74
2021/10/17 00:37:02;;;;;;;15.20;12.97;;;6.00;99.90;;;;;;5032297;28;20400;-74
2021/10/17 00:39:28;;;;;;;20.30;13.60;;;6.00;99.90;;;;;;5031998;28;20557;-74
2021/10/17 00:41:54;;;;;;;15.80;12.23;;;6.00;99.90;;;;;;5032194;28;20196;-74
2021/10/17 00:44:22;;;;;;;15.97;11.70;;;6.00;99.90;;;;;;5032232;28;20768;-74
2021/10/17 00:46:49;;;;;;;19.70;12.77;;;6.00;99.90;;;;;;5032152;28;20418;-74
2021/10/17 00:49:15;;;;;;;19.63;12.57;;;6.00;99.90;;;;;;5051008;28;20421;-74
2021/10/17 00:51:42;;;;;;;12.13;10.87;;;6.00;99.90;;;;;;5051622;28;20422;-74
2021/10/17 00:54:10;;;;;;;19.87;12.53;;;6.00;99.90;;;;;;5051729;28;20426;-74
2021/10/17 00:56:36;;;;;;;19.30;15.67;;;6.00;99.90;;;;;;5051912;28;20395;-74
2021/10/17 00:59:04;;;;;;;29.27;15.20;;;6.00;99.90;;;;;;5049827;28;20514;-74
2021/10/17 01:01:29;;;;;;;22.50;16.50;;;5.90;99.90;;;;;;5031808;28;20185;-74
2021/10/17 01:03:55;;;;;;;16.23;12.20;;;5.90;99.90;;;;;;5041075;28;20437;-74
2021/10/17 01:06:21;;;;;;;16.03;10.70;;;5.90;99.90;;;;;;5032358;28;20235;-74
2021/10/17 01:08:47;;;;;;;17.73;12.20;;;5.80;99.90;;;;;;5031766;28;20154;-74
2021/10/17 01:11:12;;;;;;;19.80;12.50;;;5.80;99.90;;;;;;5032100;28;20406;-74
2021/10/17 01:13:38;;;;;;;12.90;9.37;;;5.80;99.90;;;;;;5032089;28;20520;-74
2021/10/17 01:16:04;;;;;;;15.47;11.37;;;5.80;99.90;;;;;;5031562;28;20598;-74
2021/10/17 01:18:31;;;;;;;13.53;9.47;;;5.70;99.90;;;;;;5031652;28;20157;-74
2021/10/17 01:20:57;;;;;;;22.03;14.97;;;5.70;99.90;;;;;;5032078;28;20700;-74
2021/10/17 01:23:22;;;;;;;19.33;13.23;;;5.70;99.90;;;;;;5031802;28;20760;-74
2021/10/17 01:25:48;;;;;;;14.07;10.27;;;5.70;99.90;;;;;;5044163;28;20422;-74
2021/10/17 01:28:14;;;;;;;58.17;29.30;;;5.70;99.90;;;;;;5051536;28;20533;-74
2021/10/17 01:30:40;;;;;;;22.80;15.47;;;5.80;99.90;;;;;;5037286;28;20522;-74
2021/10/17 01:33:06;;;;;;;30.53;15.83;;;5.80;99.90;;;;;;5031708;28;20426;-74
2021/10/17 01:35:32;;;;;;;14.30;11.30;;;5.80;99.90;;;;;;5043540;28;20731;-74
2021/10/17 01:37:58;;;;;;;12.17;9.70;;;5.80;99.90;;;;;;5050811;28;20453;-73
2021/10/17 01:40:24;;;;;;;12.97;10.13;;;5.80;99.90;;;;;;5031313;28;20455;-74
2021/10/17 01:42:50;;;;;;;14.00;10.50;;;5.80;99.90;;;;;;5031706;28;20431;-74
2021/10/17 01:45:16;;;;;;;11.87;9.70;;;5.80;99.90;;;;;;5031545;28;20251;-74
2021/10/17 01:47:46;;;;;;;15.60;12.00;;;5.90;99.90;;;;;;5031557;28;20157;-74
2021/10/17 01:50:12;;;;;;;13.93;10.53;;;5.80;99.90;;;;;;5031465;28;20157;-74
2021/10/17 01:52:38;;;;;;;13.47;9.97;;;5.80;99.90;;;;;;5031388;28;20736;-74
2021/10/17 01:55:04;;;;;;;13.53;9.37;;;5.80;99.90;;;;;;5032440;28;20482;-73
2021/10/17 01:57:29;;;;;;;11.23;9.10;;;5.80;99.90;;;;;;5051367;28;20157;-74
2021/10/17 01:59:55;;;;;;;11.00;8.90;;;5.80;99.90;;;;;;5040171;28;20477;-74
2021/10/17 02:02:20;;;;;;;11.60;8.70;;;5.80;99.90;;;;;;5031302;28;20203;-74
2021/10/17 02:04:46;;;;;;;12.23;10.27;;;5.70;99.90;;;;;;5031292;28;20191;-74
2021/10/17 02:07:11;;;;;;;13.20;11.70;;;5.70;99.90;;;;;;5033448;28;20284;-74
2021/10/17 02:09:37;;;;;;;15.80;12.20;;;5.70;99.90;;;;;;5034843;28;20160;-73
2021/10/17 02:12:03;;;;;;;14.83;13.33;;;5.70;99.90;;;;;;5035353;28;20214;-74
2021/10/17 02:14:28;;;;;;;16.67;11.90;;;5.60;99.90;;;;;;5034567;28;20641;-74
2021/10/17 02:16:54;;;;;;;16.30;11.83;;;5.60;99.90;;;;;;5034818;28;20427;-74
2021/10/17 02:19:19;;;;;;;18.37;13.97;;;5.60;99.90;;;;;;5034967;28;20188;-74
2021/10/17 02:21:45;;;;;;;23.43;14.17;;;5.60;99.90;;;;;;5034770;28;20157;-74
2021/10/17 02:24:11;;;;;;;16.03;11.73;;;5.60;99.90;;;;;;5035624;28;20677;-74
2021/10/17 02:26:38;;;;;;;16.83;10.60;;;5.60;99.90;;;;;;5054475;28;20605;-74
2021/10/17 02:29:04;;;;;;;11.63;10.43;;;5.60;99.90;;;;;;5052678;28;20466;-73
2021/10/17 02:31:29;;;;;;;12.37;10.63;;;5.60;99.90;;;;;;5037206;28;20522;-74
2021/10/17 02:33:55;;;;;;;17.73;12.90;;;5.60;99.90;;;;;;5034446;28;20431;-74
2021/10/17 02:36:21;;;;;;;18.10;12.17;;;5.60;99.90;;;;;;5053370;28;20233;-74
2021/10/17 02:38:46;;;;;;;20.30;11.47;;;5.60;99.90;;;;;;5049353;28;20179;-74
2021/10/17 02:41:12;;;;;;;15.57;10.00;;;5.50;99.90;;;;;;5034071;28;20283;-74
2021/10/17 02:43:38;;;;;;;15.53;10.33;;;5.50;99.90;;;;;;5034198;28;20633;-74
2021/10/17 02:46:03;;;;;;;11.00;9.00;;;5.50;99.90;;;;;;5034966;28;20398;-74
2021/10/17 02:48:29;;;;;;;11.47;8.60;;;5.50;99.90;;;;;;5034235;28;20157;-74
2021/10/17 02:50:54;;;;;;;21.73;14.60;;;5.50;99.90;;;;;;5034285;28;20173;-74
2021/10/17 02:53:20;;;;;;;30.87;18.23;;;5.50;99.90;;;;;;5034167;28;20161;-74
2021/10/17 02:55:46;;;;;;;28.20;16.30;;;5.50;99.90;;;;;;5034141;28;20210;-74
2021/10/17 02:58:11;;;;;;;59.70;31.33;;;5.50;99.90;;;;;;5034149;28;20157;-74
2021/10/17 03:00:37;;;;;;;45.87;26.67;;;5.40;99.90;;;;;;5042235;28;20203;-74
2021/10/17 03:03:04;;;;;;;36.43;21.17;;;5.40;99.90;;;;;;5051826;28;20194;-73
2021/10/17 03:05:29;;;;;;;44.90;24.17;;;5.40;99.90;;;;;;5053935;28;20706;-74
2021/10/17 03:07:55;;;;;;;26.60;15.80;;;5.40;99.90;;;;;;5053849;28;20434;-74
2021/10/17 03:10:22;;;;;;;16.87;11.63;;;5.40;99.90;;;;;;5053626;28;20218;-73
2021/10/17 03:12:48;;;;;;;28.97;17.50;;;5.40;99.90;;;;;;5053512;28;20537;-74
2021/10/17 03:15:14;;;;;;;26.33;15.60;;;5.40;99.90;;;;;;5053216;28;20395;-74
2021/10/17 03:17:40;;;;;;;21.67;13.10;;;5.40;99.90;;;;;;5053673;28;20506;-74
2021/10/17 03:20:06;;;;;;;16.60;12.83;;;5.40;99.90;;;;;;5052823;28;20211;-74
2021/10/17 03:22:32;;;;;;;20.63;14.23;;;5.40;99.90;;;;;;5053622;28;20152;-74
2021/10/17 03:24:57;;;;;;;36.13;17.40;;;5.40;99.90;;;;;;5053450;28;20410;-75
2021/10/17 03:27:23;;;;;;;23.23;15.10;;;5.40;99.90;;;;;;5053090;28;20278;-74
2021/10/17 03:29:48;;;;;;;20.20;13.20;;;5.40;99.90;;;;;;5048452;28;20180;-74
2021/10/17 03:32:14;;;;;;;21.67;12.77;;;5.30;99.90;;;;;;5033323;28;20172;-74
2021/10/17 03:34:39;;;;;;;26.57;15.07;;;5.30;99.90;;;;;;5038460;28;20176;-74
2021/10/17 03:37:05;;;;;;;30.47;18.30;;;5.30;99.90;;;;;;5052231;28;20161;-74
2021/10/17 03:39:30;;;;;;;33.90;18.53;;;5.30;99.90;;;;;;5042098;28;20209;-74
2021/10/17 03:41:56;;;;;;;18.37;11.77;;;5.30;99.90;;;;;;5033038;28;20550;-74
2021/10/17 03:44:21;;;;;;;14.90;11.77;;;5.30;99.90;;;;;;5033120;28;20618;-74
2021/10/17 03:46:47;;;;;;;13.20;11.17;;;5.30;99.90;;;;;;5032842;28;20153;-74
2021/10/17 03:49:13;;;;;;;12.80;10.10;;;5.30;99.90;;;;;;5033106;28;20162;-74
2021/10/17 03:51:38;;;;;;;14.47;11.83;;;5.30;99.90;;;;;;5033236;28;20398;-74
2021/10/17 03:54:04;;;;;;;14.20;10.27;;;5.30;99.90;;;;;;5033905;28;20169;-74
2021/10/17 03:56:30;;;;;;;14.00;10.30;;;5.30;99.90;;;;;;5052878;28;20164;-74
2021/10/17 03:58:55;;;;;;;14.60;11.13;;;5.30;99.90;;;;;;5052363;28;20690;-75
2021/10/17 04:01:21;;;;;;;16.60;11.57;;;5.20;99.90;;;;;;5050937;28;20184;-74
2021/10/17 04:03:46;;;;;;;17.67;11.50;;;5.20;99.90;;;;;;5044007;28;20165;-74
2021/10/17 04:06:12;;;;;;;17.90;12.10;;;5.20;99.90;;;;;;5032780;28;20173;-74
2021/10/17 04:08:39;;;;;;;16.53;10.87;;;5.20;99.90;;;;;;5032965;28;20165;-74
2021/10/17 04:11:05;;;;;;;13.70;10.97;;;5.20;99.90;;;;;;5033120;28;20225;-74
2021/10/17 04:13:30;;;;;;;15.20;10.10;;;5.20;99.90;;;;;;5032612;28;20955;-74
2021/10/17 04:15:56;;;;;;;14.17;9.63;;;5.20;99.90;;;;;;5032490;28;20392;-74
2021/10/17 04:18:21;;;;;;;14.37;10.33;;;5.20;99.90;;;;;;5032635;28;20199;-74
2021/10/17 04:20:47;;;;;;;11.17;8.83;;;5.20;99.90;;;;;;5039478;28;20199;-74
2021/10/17 04:23:13;;;;;;;10.73;9.63;;;5.20;99.90;;;;;;5052070;28;20188;-74
2021/10/17 04:25:38;;;;;;;12.43;9.10;;;5.20;99.90;;;;;;5052159;28;20176;-74
2021/10/17 04:28:04;;;;;;;12.20;9.07;;;5.20;99.90;;;;;;5051413;28;20218;-74
2021/10/17 04:30:30;;;;;;;12.70;8.90;;;5.30;99.90;;;;;;5043229;28;20259;-74
2021/10/17 04:32:55;;;;;;;10.13;8.77;;;5.30;99.90;;;;;;5032378;28;20622;-74
2021/10/17 04:35:21;;;;;;;12.00;8.70;;;5.30;99.90;;;;;;5043098;28;20180;-74
2021/10/17 04:37:46;;;;;;;10.50;9.20;;;5.30;99.90;;;;;;5052231;28;20523;-74
2021/10/17 04:40:12;;;;;;;10.57;9.53;;;5.30;99.90;;;;;;5035129;28;20204;-74
2021/10/17 04:42:38;;;;;;;12.43;9.27;;;5.30;99.90;;;;;;5032188;28;20219;-74
2021/10/17 04:45:05;;;;;;;10.27;9.17;;;5.30;99.90;;;;;;5032711;28;20164;-74
2021/10/17 04:47:30;;;;;;;13.00;9.27;;;5.30;99.90;;;;;;5032079;28;20430;-74
2021/10/17 04:49:56;;;;;;;11.40;9.97;;;5.40;99.90;;;;;;5031987;28;20399;-74
2021/10/17 04:52:21;;;;;;;13.93;11.60;;;5.40;99.90;;;;;;5032057;28;20157;-74
2021/10/17 04:54:47;;;;;;;16.77;11.73;;;5.40;99.90;;;;;;5032045;28;20618;-74
2021/10/17 04:57:13;;;;;;;10.93;9.20;;;5.40;99.90;;;;;;5031700;28;20232;-74
2021/10/17 04:59:38;;;;;;;16.77;10.13;;;5.40;99.90;;;;;;5031901;28;20550;-74
2021/10/17 05:02:04;;;;;;;9.63;8.53;;;5.40;99.90;;;;;;5049234;28;20220;-73
2021/10/17 05:04:30;;;;;;;13.93;9.77;;;5.40;99.90;;;;;;5046239;28;20171;-74
2021/10/17 05:06:55;;;;;;;10.90;9.30;;;5.50;99.90;;;;;;5051834;28;20235;-74
2021/10/17 05:09:21;;;;;;;13.90;9.17;;;5.50;99.90;;;;;;5051682;28;20643;-74
2021/10/17 05:11:47;;;;;;;14.67;8.80;;;5.50;99.90;;;;;;5050933;28;20170;-74
2021/10/17 05:14:12;;;;;;;13.67;8.80;;;5.50;99.90;;;;;;5051721;28;20168;-74
2021/10/17 05:16:38;;;;;;;9.90;8.90;;;5.60;99.90;;;;;;5051797;28;20218;-74
2021/10/17 05:19:04;;;;;;;10.13;8.00;;;5.60;99.90;;;;;;5050249;28;20188;-74
2021/10/17 05:21:32;;;;;;;10.93;8.10;;;5.60;99.90;;;;;;5045000;28;20203;-74
2021/10/17 05:23:57;;;;;;;11.43;7.73;;;5.60;99.90;;;;;;5051494;28;20172;-74
2021/10/17 05:26:23;;;;;;;11.53;8.10;;;5.60;99.90;;;;;;5051772;28;20452;-74
2021/10/17 05:28:49;;;;;;;11.67;9.53;;;5.70;99.90;;;;;;5051415;28;20621;-74
2021/10/17 05:31:15;;;;;;;11.87;9.23;;;5.70;99.90;;;;;;5040335;28;20180;-74
2021/10/17 05:33:40;;;;;;;12.67;8.30;;;5.70;99.90;;;;;;5031622;28;20196;-74
2021/10/17 05:36:07;;;;;;;10.03;9.03;;;5.70;99.90;;;;;;5047573;28;20254;-74
2021/10/17 05:38:32;;;;;;;8.50;7.70;;;5.70;99.90;;;;;;5048385;28;20173;-74
2021/10/17 05:40:58;;;;;;;11.70;8.40;;;5.70;99.90;;;;;;5031276;28;20458;-74
2021/10/17 05:43:24;;;;;;;11.40;8.50;;;5.80;99.90;;;;;;5035547;28;20164;-74
2021/10/17 05:45:49;;;;;;;11.43;8.60;;;5.80;99.90;;;;;;5035352;28;20236;-74
2021/10/17 05:48:15;;;;;;;10.80;8.60;;;5.80;99.90;;;;;;5035368;28;20482;-74
2021/10/17 05:50:40;;;;;;;8.83;7.90;;;5.90;99.90;;;;;;5035363;28;20161;-74
2021/10/17 05:53:06;;;;;;;11.23;8.43;;;5.90;99.90;;;;;;5035962;28;20650;-75
2021/10/17 05:55:32;;;;;;;13.60;8.53;;;5.90;99.90;;;;;;5035474;28;20513;-74
2021/10/17 05:57:57;;;;;;;13.87;9.67;;;5.90;99.90;;;;;;5035316;28;20169;-74
2021/10/17 06:00:23;;;;;;;10.47;9.33;;;5.90;99.90;;;;;;5037822;28;20450;-74
2021/10/17 06:02:49;;;;;;;13.53;10.07;;;6.00;99.90;;;;;;5054432;28;20579;-74
2021/10/17 06:05:15;;;;;;;12.03;8.73;;;6.00;99.90;;;;;;5035259;28;20701;-74
2021/10/17 06:07:41;;;;;;;11.43;9.33;;;6.10;99.90;;;;;;5035161;28;20944;-74
2021/10/17 06:10:09;;;;;;;16.07;11.00;;;6.10;99.90;;;;;;5036054;28;20171;-74
2021/10/17 06:12:37;;;;;;;10.80;9.20;;;6.10;99.90;;;;;;5034846;28;20208;-74
2021/10/17 06:15:04;;;;;;;12.87;9.80;;;6.10;99.90;;;;;;5034801;28;20399;-74
2021/10/17 06:17:30;;;;;;;12.97;9.87;;;6.10;99.90;;;;;;5034956;28;20395;-74
2021/10/17 06:19:56;;;;;;;12.27;10.13;;;6.10;99.90;;;;;;5034864;28;20538;-74
2021/10/17 06:22:21;;;;;;;9.70;8.80;;;6.20;99.90;;;;;;5052650;28;20183;-74
2021/10/17 06:24:47;;;;;;;9.80;8.80;;;6.20;99.90;;;;;;5054807;28;20149;-74
2021/10/17 06:27:12;;;;;;;10.03;9.03;;;6.20;99.90;;;;;;5053983;28;20196;-74
2021/10/17 06:29:38;;;;;;;10.53;8.77;;;6.20;99.90;;;;;;5052680;28;20206;-74
2021/10/17 06:32:04;;;;;;;10.43;9.37;;;6.20;99.90;;;;;;5034334;28;20558;-74
2021/10/17 06:34:30;;;;;;;11.43;9.20;;;6.20;99.90;;;;;;5038008;28;20176;-74
2021/10/17 06:36:56;;;;;;;9.13;8.23;;;6.20;99.90;;;;;;5054399;28;20756;-74
2021/10/17 06:39:22;;;;;;;8.87;7.87;;;6.20;99.90;;;;;;5044445;28;20595;-74
2021/10/17 06:41:48;;;;;;;13.30;8.67;;;6.30;99.90;;;;;;5034240;28;20443;-74
2021/10/17 06:44:13;;;;;;;11.57;8.87;;;6.30;99.90;;;;;;5035181;28;20297;-74
2021/10/17 06:46:39;;;;;;;11.23;8.23;;;6.30;99.90;;;;;;5034304;28;20601;-74
2021/10/17 06:49:04;;;;;;;9.60;8.60;;;6.40;99.90;;;;;;5034308;28;20165;-74
2021/10/17 06:51:30;;;;;;;10.20;9.00;;;6.40;99.90;;;;;;5034073;28;20200;-74
2021/10/17 06:53:56;;;;;;;18.03;9.63;;;6.40;99.90;;;;;;5033693;28;20169;-74
2021/10/17 06:56:21;;;;;;;10.80;9.63;;;6.40;99.90;;;;;;5034302;28;20165;-74
2021/10/17 06:58:47;;;;;;;11.57;8.80;;;6.40;99.90;;;;;;5033699;28;20275;-74
2021/10/17 07:01:13;;;;;;;10.80;9.70;;;6.40;99.90;;;;;;5043407;28;20180;-74
2021/10/17 07:03:39;;;;;;;12.60;8.50;;;6.50;99.90;;;;;;5041564;28;20225;-74
2021/10/17 07:06:05;;;;;;;13.03;9.00;;;6.60;99.90;;;;;;5054009;28;20186;-74
2021/10/17 07:08:31;;;;;;;12.40;9.07;;;6.60;99.90;;;;;;5054026;28;20383;-74
2021/10/17 07:10:57;;;;;;;9.80;8.60;;;6.70;99.90;;;;;;5052820;28;20789;-74
2021/10/17 07:13:22;;;;;;;12.87;9.57;;;6.70;99.90;;;;;;5053646;28;20246;-75
2021/10/17 07:15:48;;;;;;;10.00;8.80;;;6.80;99.90;;;;;;5053903;28;20180;-74
2021/10/17 07:18:13;;;;;;;10.50;9.07;;;6.80;99.90;;;;;;5051216;28;20237;-74
2021/10/17 07:20:39;;;;;;;13.40;9.03;;;6.90;99.90;;;;;;5039801;28;20203;-74
2021/10/17 07:23:05;;;;;;;13.60;10.10;;;6.90;99.90;;;;;;5054007;28;20164;-74
2021/10/17 07:25:30;;;;;;;12.50;10.63;;;7.00;99.90;;;;;;5053645;28;20178;-74
2021/10/17 07:27:56;;;;;;;12.57;9.30;;;7.10;99.90;;;;;;5053642;28;20481;-74
2021/10/17 07:30:22;;;;;;;11.60;9.07;;;7.20;99.90;;;;;;5049536;28;20184;-74
2021/10/17 07:32:48;;;;;;;11.30;9.20;;;7.20;99.90;;;;;;5033854;28;20907;-74
2021/10/17 07:35:14;;;;;;;12.20;9.10;;;7.30;99.90;;;;;;5042077;28;20230;-74
2021/10/17 07:37:40;;;;;;;15.53;9.57;;;7.30;99.90;;;;;;5053587;28;20175;-75
2021/10/17 07:40:06;;;;;;;10.00;9.10;;;7.30;99.90;;;;;;5036930;28;20513;-74
2021/10/17 07:42:32;;;;;;;9.50;8.60;;;7.30;99.90;;;;;;5033460;28;20276;-74
2021/10/17 07:44:58;;;;;;;10.10;9.10;;;7.30;99.90;;;;;;5033053;28;20503;-74
2021/10/17 07:47:24;;;;;;;9.90;9.00;;;7.40;99.90;;;;;;5032977;28;20165;-74
2021/10/17 07:49:50;;;;;;;11.43;10.13;;;7.40;99.90;;;;;;5033264;28;20403;-74
2021/10/17 07:52:15;;;;;;;11.67;8.60;;;7.40;99.90;;;;;;5033587;28;20949;-74
2021/10/17 07:54:41;;;;;;;12.47;9.30;;;7.50;99.90;;;;;;5033250;28;20157;-74
2021/10/17 07:57:07;;;;;;;24.57;10.77;;;7.50;99.90;;;;;;5033017;28;20176;-75
2021/10/17 07:59:32;;;;;;;16.27;9.77;;;7.60;99.90;;;;;;5041397;28;20216;-74
2021/10/17 08:01:58;;;;;;;11.80;8.30;;;7.60;99.90;;;;;;5052910;28;20233;-75
2021/10/17 08:04:23;;;;;;;14.27;9.97;;;7.70;99.90;;;;;;5038426;28;20160;-75
2021/10/17 08:06:49;;;;;;;12.60;9.23;;;7.80;99.90;;;;;;5032972;28;20627;-74
2021/10/17 08:09:14;;;;;;;11.17;9.00;;;7.90;99.90;;;;;;5033386;28;20184;-74
2021/10/17 08:11:40;;;;;;;11.67;10.47;;;8.00;99.90;;;;;;5032874;28;20571;-74
2021/10/17 08:14:06;;;;;;;10.00;8.83;;;8.00;99.90;;;;;;5032594;28;20161;-74
2021/10/17 08:16:31;;;;;;;10.23;9.13;;;8.10;99.90;;;;;;5032652;28;20240;-74
2021/10/17 08:18:57;;;;;;;10.80;9.80;;;8.30;99.90;;;;;;5036647;28;20184;-74
2021/10/17 08:21:22;;;;;;;12.43;10.17;;;8.40;99.90;;;;;;5052501;28;20599;-74
2021/10/17 08:23:48;;;;;;;15.60;10.77;;;8.40;99.90;;;;;;5052359;28;20196;-74
2021/10/17 08:26:14;;;;;;;14.43;11.40;;;8.50;99.90;;;;;;5051715;28;20181;-75
2021/10/17 08:28:39;;;;;;;10.03;8.60;;;8.50;99.90;;;;;;5051133;28;20167;-74
2021/10/17 08:31:06;;;;;;;11.03;9.63;;;8.60;99.90;;;;;;5041205;28;20251;-74
2021/10/17 08:33:32;;;;;;;11.70;10.03;;;8.70;99.90;;;;;;5052310;28;20176;-74
2021/10/17 08:35:57;;;;;;;12.13;10.40;;;8.80;99.90;;;;;;5052174;28;20411;-74
2021/10/17 08:38:23;;;;;;;14.17;9.40;;;8.90;99.90;;;;;;5050768;28;20430;-74
2021/10/17 08:40:51;;;;;;;13.50;10.33;;;9.00;99.90;;;;;;5032013;28;20331;-75
2021/10/17 08:43:18;;;;;;;12.83;9.57;;;9.10;99.90;;;;;;5032875;28;20194;-75
2021/10/17 08:45:45;;;;;;;11.77;9.60;;;9.20;99.90;;;;;;5032662;28;20395;-74
2021/10/17 08:48:12;;;;;;;11.70;10.20;;;9.30;99.90;;;;;;5032254;28;20403;-75
2021/10/17 08:50:39;;;;;;;13.10;9.53;;;9.40;99.90;;;;;;5032053;28;20422;-75
2021/10/17 08:53:05;;;;;;;13.23;10.50;;;9.40;99.90;;;;;;5032184;28;20422;-75
2021/10/17 08:55:30;;;;;;;12.57;9.23;;;9.50;99.90;;;;;;5032307;28;20411;-74
2021/10/17 08:57:56;;;;;;;12.07;9.83;;;9.60;99.90;;;;;;5031950;28;20226;-75
2021/10/17 09:03:07;;;;;;;15.53;10.47;;;9.60;99.90;;;;;;5069667;28;20512;-75
2021/10/17 09:08:09;;;;;;;12.80;11.33;;;9.80;99.90;;;;;;5070063;28;20578;-77
2021/10/17 09:10:36;;;;;;;12.10;9.57;;;10.00;99.90;;;;;;5069465;28;20804;-77
2021/10/17 09:13:13;;;;;;;11.83;10.13;;;10.00;99.90;;;;;;5069983;28;20869;-77
2021/10/17 09:15:40;;;;;;;11.67;9.87;;;10.00;99.90;;;;;;5069855;28;20943;-77
2021/10/17 09:26:09;;;;;;;12.37;11.00;;;10.10;99.90;;;;;;5069970;28;20500;-74
2021/10/17 09:28:35;;;;;;;13.07;9.83;;;10.40;99.90;;;;;;5070040;28;20437;-73
2021/10/17 09:31:14;;;;;;;11.37;10.17;;;10.50;99.90;;;;;;5069709;28;20441;-71
2021/10/17 09:33:57;;;;;;;14.43;9.60;;;10.50;99.90;;;;;;5070032;28;20456;-74
2021/10/17 09:36:27;;;;;;;13.23;9.87;;;10.60;99.90;;;;;;5069474;28;20409;-73
2021/10/17 09:38:57;;;;;;;12.00;10.23;;;10.70;99.90;;;;;;5063911;28;20446;-73
2021/10/17 09:41:33;;;;;;;15.27;11.53;;;10.80;99.90;;;;;;5049916;28;20480;-71
2021/10/17 09:44:00;;;;;;;12.27;10.00;;;10.90;99.90;;;;;;5049572;28;20529;-73
2021/10/17 09:46:27;;;;;;;10.07;9.03;;;11.00;99.90;;;;;;5049693;28;20895;-73
2021/10/17 09:48:53;;;;;;;12.73;11.43;;;11.10;99.90;;;;;;5049838;28;20395;-74
2021/10/17 09:51:27;;;;;;;16.23;10.70;;;11.10;99.90;;;;;;5050001;28;21223;-72
2021/10/17 09:53:56;;;;;;;15.83;10.97;;;11.20;99.90;;;;;;5049478;28;20164;-72
2021/10/17 09:59:10;;;;;;;14.73;9.10;;;11.40;99.90;;;;;;5069946;28;20530;-73
2021/10/17 10:01:37;;;;;;;16.30;10.67;;;11.60;99.90;;;;;;5069648;28;20767;-72
2021/10/17 10:04:05;;;;;;;17.10;10.97;;;11.80;99.90;;;;;;5069517;28;20471;-72
2021/10/17 10:06:32;;;;;;;12.20;9.90;;;11.80;99.90;;;;;;5069987;28;20382;-72
2021/10/17 10:09:01;;;;;;;12.77;9.40;;;12.00;99.90;;;;;;5060796;28;20429;-73
2021/10/17 10:11:28;;;;;;;11.80;10.03;;;12.10;99.90;;;;;;5063531;28;20414;-72
2021/10/17 10:13:57;;;;;;;11.57;9.10;;;12.20;99.90;;;;;;5069617;28;20430;-72
2021/10/17 10:16:25;;;;;;;11.97;10.33;;;12.40;99.90;;;;;;5069426;28;20906;-72
2021/10/17 10:18:54;;;;;;;10.23;9.23;;;12.50;99.90;;;;;;5069519;28;20843;-73
2021/10/17 10:21:20;;;;;;;12.33;9.20;;;12.60;99.90;;;;;;5056670;28;20454;-73
2021/10/17 10:23:49;;;;;;;11.00;8.00;;;12.60;99.90;;;;;;5049308;28;20432;-72
2021/10/17 10:26:16;;;;;;;12.00;8.50;;;12.70;99.90;;;;;;5057126;28;20417;-72
2021/10/17 10:28:42;;;;;;;13.23;8.37;;;12.80;99.90;;;;;;5069007;28;20402;-72
2021/10/17 10:31:45;;;;;;;11.07;9.83;;;12.90;99.90;;;;;;5068689;28;20583;-72
2021/10/17 10:34:32;;;;;;;9.37;7.10;;;12.90;99.90;;;;;;5068411;28;20398;-73
2021/10/17 10:37:13;;;;;;;11.00;7.23;;;13.00;99.90;;;;;;5068016;28;20441;-72
2021/10/17 10:42:41;;;;;;;7.13;5.93;;;13.20;99.90;;;;;;5064175;28;20509;-71
2021/10/17 10:53:55;;;;;;;7.80;4.70;;;13.30;99.90;;;;;;5069951;28;20537;-72
2021/10/17 10:56:45;;;;;;;5.23;3.53;;;13.50;99.90;;;;;;5069061;28;20405;-72
2021/10/17 10:59:13;;;;;;;7.60;3.70;;;13.50;99.90;;;;;;5066514;28;20419;-72
2021/10/17 11:02:22;;;;;;;4.77;3.00;;;13.50;99.90;;;;;;5065497;28;20424;-73
2021/10/17 11:07:37;;;;;;;3.63;3.33;;;13.50;99.90;;;;;;5046512;27;20543;-71
2021/10/17 11:13:03;;;;;;;6.37;3.47;;;13.50;99.90;;;;;;5069945;28;20574;-72
2021/10/17 11:15:31;;;;;;;7.53;3.30;;;13.40;99.90;;;;;;5069852;28;20439;-73
2021/10/17 11:23:19;;;;;;;3.80;2.60;;;13.40;99.90;;;;;;5090056;28;20510;-72
2021/10/17 11:28:31;;;;;;;3.30;2.60;;;13.60;99.90;;;;;;5069861;28;20509;-72
2021/10/17 11:31:04;;;;;;;4.10;2.83;;;13.60;99.90;;;;;;5069510;28;20472;-71
2021/10/17 11:33:30;;;;;;;5.90;3.33;;;13.60;99.90;;;;;;5064565;28;20404;-72
2021/10/17 11:35:57;;;;;;;6.33;2.40;;;13.70;99.90;;;;;;5065329;28;20459;-71
2021/10/17 11:38:24;;;;;;;2.70;2.40;;;13.70;99.90;;;;;;5068170;28;20390;-71
2021/10/17 11:40:57;;;;;;;2.63;2.03;;;13.80;99.90;;;;;;5049530;28;20411;-72
2021/10/17 11:43:32;;;;;;;2.83;1.80;;;13.90;99.90;;;;;;5049589;28;20399;-72
2021/10/17 11:46:03;;;;;;;3.00;2.27;;;13.90;99.90;;;;;;5049693;28;20390;-72
2021/10/17 11:48:28;;;;;;;3.90;1.90;;;14.00;99.90;;;;;;5049924;28;20910;-72
2021/10/17 11:50:54;;;;;;;6.20;2.53;;;14.00;99.90;;;;;;5051520;28;20430;-71
2021/10/17 11:53:21;;;;;;;4.40;2.10;;;14.00;99.90;;;;;;5049793;28;20165;-72
2021/10/17 11:58:26;;;;;;;4.37;2.17;;;14.10;99.90;;;;;;5130966;27;20508;-71
2021/10/17 12:00:55;;;;;;;4.73;2.47;;;14.20;99.90;;;;;;5130889;28;20403;-72
2021/10/17 12:03:22;;;;;;;5.13;2.30;;;14.30;99.90;;;;;;5130621;28;20494;-73
2021/10/17 12:05:50;;;;;;;2.47;1.87;;;14.30;99.90;;;;;;5130903;28;20429;-73
2021/10/17 12:13:48;;;;;;;3.60;2.17;;;14.40;99.90;;;;;;5090016;28;20600;-71
2021/10/17 12:16:17;;;;;;;4.00;2.50;;;14.40;99.90;;;;;;5090039;28;20878;-71
2021/10/17 12:18:45;;;;;;;4.30;2.60;;;14.40;99.90;;;;;;5090074;28;20731;-71
2021/10/17 12:21:12;;;;;;;3.37;2.10;;;14.50;99.90;;;;;;5086204;28;20413;-73
2021/10/17 12:23:38;;;;;;;3.70;2.63;;;14.50;99.90;;;;;;5089991;28;20386;-73
2021/10/17 12:26:05;;;;;;;4.53;3.07;;;14.40;99.90;;;;;;5071258;28;20413;-73
2021/10/17 12:28:30;;;;;;;6.17;3.40;;;14.40;99.90;;;;;;5069474;28;20382;-74
2021/10/17 12:30:59;;;;;;;4.40;3.27;;;14.40;99.90;;;;;;5082106;28;20433;-73
2021/10/17 12:33:30;;;;;;;4.67;2.60;;;14.40;99.90;;;;;;5089476;28;20234;-73
2021/10/17 12:35:56;;;;;;;4.60;3.40;;;14.40;99.90;;;;;;5089833;28;20409;-73
2021/10/17 12:38:29;;;;;;;4.90;2.50;;;14.40;99.90;;;;;;5088045;28;20417;-73
2021/10/17 12:41:04;;;;;;;3.20;2.90;;;14.40;99.90;;;;;;5074307;28;20460;-73
2021/10/17 12:43:37;;;;;;;7.43;2.97;;;14.40;99.90;;;;;;5069481;28;20871;-73
2021/10/17 12:46:13;;;;;;;5.07;2.47;;;14.30;99.90;;;;;;5069247;28;20460;-73
2021/10/17 12:48:51;;;;;;;3.23;2.03;;;14.30;99.90;;;;;;5069276;28;20451;-74
2021/10/17 12:51:53;;;;;;;4.60;2.57;;;14.20;99.90;;;;;;5069029;28;20414;-73
2021/10/17 12:54:28;;;;;;;7.23;2.43;;;14.10;99.90;;;;;;5068355;28;20398;-73
2021/10/17 12:59:33;;;;;;;4.17;2.53;;;14.10;99.90;;;;;;5056504;28;20521;-72
2021/10/17 13:09:54;;;;;;;5.93;2.40;;;13.80;99.90;;;;;;5069969;28;21161;-73
2021/10/17 13:12:38;;;;;;;3.37;2.40;;;13.80;99.90;;;;;;5070161;28;20418;-73
2021/10/17 13:20:25;;;;;;;4.90;3.00;;;13.70;99.90;;;;;;5067484;28;20523;-73
2021/10/17 13:22:53;;;;;;;4.13;3.20;;;13.70;99.90;;;;;;5069927;28;20403;-71
2021/10/17 13:25:20;;;;;;;4.67;3.70;;;13.70;99.90;;;;;;5069812;28;20396;-72
2021/10/17 13:27:47;;;;;;;6.37;2.80;;;13.70;99.90;;;;;;5069693;28;20435;-72
2021/10/17 13:30:14;;;;;;;7.47;4.90;;;13.60;99.90;;;;;;5067620;28;20431;-72
2021/10/17 13:32:40;;;;;;;5.60;3.00;;;13.60;99.90;;;;;;5030035;28;20442;-72
2021/10/17 13:35:06;;;;;;;2.77;2.40;;;13.60;99.90;;;;;;5038244;28;20447;-71
2021/10/17 13:37:32;;;;;;;2.97;2.33;;;13.60;99.90;;;;;;5049267;28;20442;-72
2021/10/17 13:39:58;;;;;;;3.90;2.60;;;13.50;99.90;;;;;;5049375;28;20498;-72
2021/10/17 13:42:25;;;;;;;3.43;1.80;;;13.50;99.90;;;;;;5049676;28;20577;-72
2021/10/17 13:44:51;;;;;;;3.27;2.60;;;13.50;99.90;;;;;;5049531;28;20422;-71
2021/10/17 13:47:18;;;;;;;5.70;2.40;;;13.50;99.90;;;;;;5049084;28;20439;-72